La Richardais — 9HA3385 — position and weather

sailwx.info

Track history (hours):
 
Tides and Currents Weather Stations Pressure Air Temp Water Temp Dewpoint Dewpoint Depression Visibility Wind Speed Wind Dir Waves Ship Positions

La Richardais

Last reported at 2018-Jun-09 04:06 UTC. Time now 2018-Jun-22 01:45 UTC.
Position N 27°23' W 014°23'.
Warning: this ship's position is 12 days out of date.

Length 180 m; draft 9.5 m.

Type: Cargo ship. MMSI: 229533000.

Date/timePositionNaut miles runAvg speedWind from/ knotsBaromVisibWave heightAir tempDewpointWater temp
2018-Jun-09 04:06N 27°23' W 014°23'111.8
2018-Jun-09 03:59N 27°24' W 014°22'  
2018-Jun-06 18:14N 35°58' W 005°35'310.0
2018-Jun-06 17:59N 35°58' W 005°32'5 9.7
2018-Jun-06 17:30N 35°60' W 005°27'5 9.2
2018-Jun-06 17:00N 36°01' W 005°21'5 9.2
2018-Jun-06 16:30N 36°03' W 005°16'39710.3
2018-Jun-05 01:58N 37°03' E 002°53'612.8
2018-Jun-05 01:30N 37°04' E 002°60'612.8
2018-Jun-05 01:00N 37°05' E 003°08'612.6
2018-Jun-05 00:30N 37°06' E 003°16'1411.9
2018-Jun-04 23:18N 37°09' E 003°33'411.5
2018-Jun-04 23:00N 37°10' E 003°37'  
Track history (hours):
 
Tides and Currents Weather Stations Pressure Air Temp Water Temp Dewpoint Dewpoint Depression Visibility Wind Speed Wind Dir Waves Ship Positions

La Richardais

Last reported at 2018-Jun-09 04:06 UTC. Time now 2018-Jun-22 01:45 UTC.
Position N 27°23' W 014°23'.
Warning: this ship's position is 12 days out of date.

Length 180 m; draft 9.5 m.

Type: Cargo ship. MMSI: 229533000.

Date/timePositionNaut miles runAvg speedWind from/ knotsBaromVisibWave heightAir tempDewpointWater temp
2018-Jun-09 04:06N 27°23' W 014°23'111.8
2018-Jun-09 03:59N 27°24' W 014°22'  
2018-Jun-06 18:14N 35°58' W 005°35'310.0
2018-Jun-06 17:59N 35°58' W 005°32'5 9.7
2018-Jun-06 17:30N 35°60' W 005°27'5 9.2
2018-Jun-06 17:00N 36°01' W 005°21'5 9.2
2018-Jun-06 16:30N 36°03' W 005°16'39710.3
2018-Jun-05 01:58N 37°03' E 002°53'612.8
2018-Jun-05 01:30N 37°04' E 002°60'612.8
2018-Jun-05 01:00N 37°05' E 003°08'612.6
2018-Jun-05 00:30N 37°06' E 003°16'1411.9
2018-Jun-04 23:18N 37°09' E 003°33'411.5
2018-Jun-04 23:00N 37°10' E 003°37'  

Dump ship's entire track history